Pagrindinis puslapis
METAR-TAF:

METAR-TAF

Oro uostai :

Ha'il, Saudo Arabija

platuma: 27-26N, ilguma: 041-41E, Aukštis: 1015 m

Dabartinis oras

Ataskaita buvo paskelbta 38 minutes, ne 22:00 UTC
Ramus vėjas
Temperatūra 28°C
Drėgmė 16%
Slėgis 1008 hPa
Matomumas 10 km arba daugiau
nėra debesų žemiau 1500 m ir nėra kamuolinių lietaus debesų

METAR: OEHL 012200Z 00000KT CAVOK 28/00 Q1008

Laikas: 01:38 (22:38 UTC)

Prognozė

Ataskaita buvo paskelbta 11 valandos ir 38 minutes, ne 11:00 UTC
Prognozė galioja nuo 01 metu 12 UTC su 02 metu 18 UTC
Vėjas 6 kt iš Šiaurės/Šiaurės Rytų
Matomumas 10 km arba daugiau
nėra debesų žemiau 1500 m ir nėra kamuolinių lietaus debesų
Tapsmas
nuo 01 metu 15 UTC su 01 metu 17 UTC
Vėjas 14 kt iš Šiaurės

TAF: OEHL 011100Z 0112/0218 02006KT CAVOK BECMG 0115/0117 36014KT

Orai ataskaitas ir orų prognozės (METAR, TAF).

turimą stotys yra geltonos ir raudonos taškus žemėlapyje.

Perkelti pele per norėdami pamatyti stoties vardą.

Tada spustelėkite, norėdami matyti oro stebėjimo ir prognozės.

Norėdami pakeisti žemėlapį: spustelėkite ant žalios mygtukų su juodo kryžiaus žemyn,; žalią mygtuką su brūkšneliu, jei norite nutolinti; arba žalių rodyklių gretimoms žemėlapius.


METAR-TAF: